sensor_id;sensor_type;location;lat;lon;timestamp;pressure;altitude;pressure_sealevel;temperature;humidity
11077;BME280;5591;42.626;23.380;2023-11-21T00:00:33;94000.22;;;6.75;nan
11077;BME280;5591;42.626;23.380;2023-11-21T00:03:00;94017.34;;;6.78;nan
11077;BME280;5591;42.626;23.380;2023-11-21T00:05:27;94013.88;;;6.85;nan
11077;BME280;5591;42.626;23.380;2023-11-21T00:07:55;94019.88;;;6.94;nan
11077;BME280;5591;42.626;23.380;2023-11-21T00:10:22;94003.28;;;6.87;nan
11077;BME280;5591;42.626;23.380;2023-11-21T00:12:49;94015.28;;;6.96;nan
11077;BME280;5591;42.626;23.380;2023-11-21T00:15:16;94009.75;;;6.91;nan
11077;BME280;5591;42.626;23.380;2023-11-21T00:17:42;94012.31;;;6.99;nan
11077;BME280;5591;42.626;23.380;2023-11-21T00:20:09;94025.28;;;7.15;nan
11077;BME280;5591;42.626;23.380;2023-11-21T00:22:38;94026.00;;;7.01;nan
11077;BME280;5591;42.626;23.380;2023-11-21T00:25:08;94022.63;;;6.92;nan
11077;BME280;5591;42.626;23.380;2023-11-21T00:27:35;94015.63;;;6.93;nan
11077;BME280;5591;42.626;23.380;2023-11-21T00:30:02;94006.47;;;6.97;nan
11077;BME280;5591;42.626;23.380;2023-11-21T00:32:31;93921.22;;;6.44;nan
11077;BME280;5591;42.626;23.380;2023-11-21T00:34:57;93993.44;;;6.97;nan
11077;BME280;5591;42.626;23.380;2023-11-21T00:37:25;94005.09;;;7.09;nan
11077;BME280;5591;42.626;23.380;2023-11-21T00:39:51;93998.72;;;7.11;nan
11077;BME280;5591;42.626;23.380;2023-11-21T00:42:20;94010.16;;;7.10;nan
11077;BME280;5591;42.626;23.380;2023-11-21T00:44:48;94006.25;;;7.06;nan
11077;BME280;5591;42.626;23.380;2023-11-21T00:47:15;94011.53;;;6.98;nan
11077;BME280;5591;42.626;23.380;2023-11-21T00:49:42;94012.22;;;6.92;nan
11077;BME280;5591;42.626;23.380;2023-11-21T00:52:08;94019.88;;;6.94;nan
11077;BME280;5591;42.626;23.380;2023-11-21T00:54:35;94016.22;;;6.72;nan
11077;BME280;5591;42.626;23.380;2023-11-21T00:57:02;94011.22;;;6.63;nan
11077;BME280;5591;42.626;23.380;2023-11-21T00:59:30;94010.25;;;6.64;nan
11077;BME280;5591;42.626;23.380;2023-11-21T01:01:57;94003.09;;;6.58;nan
11077;BME280;5591;42.626;23.380;2023-11-21T01:04:26;93998.22;;;6.55;nan
11077;BME280;5591;42.626;23.380;2023-11-21T01:06:53;93993.00;;;6.55;nan
11077;BME280;5591;42.626;23.380;2023-11-21T01:09:20;93996.94;;;6.51;nan
11077;BME280;5591;42.626;23.380;2023-11-21T01:11:47;93995.50;;;6.40;nan
11077;BME280;5591;42.626;23.380;2023-11-21T01:14:14;94031.50;;;6.37;nan
11077;BME280;5591;42.626;23.380;2023-11-21T01:16:44;93979.75;;;6.34;nan
11077;BME280;5591;42.626;23.380;2023-11-21T01:19:11;93984.13;;;6.33;nan
11077;BME280;5591;42.626;23.380;2023-11-21T01:21:38;93982.69;;;6.31;nan
11077;BME280;5591;42.626;23.380;2023-11-21T01:24:05;93992.00;;;6.17;nan
11077;BME280;5591;42.626;23.380;2023-11-21T01:26:33;93994.78;;;6.16;nan
11077;BME280;5591;42.626;23.380;2023-11-21T01:28:59;93993.78;;;6.25;nan
11077;BME280;5591;42.626;23.380;2023-11-21T01:31:26;93992.16;;;6.16;nan
11077;BME280;5591;42.626;23.380;2023-11-21T01:33:56;93987.31;;;6.05;nan
11077;BME280;5591;42.626;23.380;2023-11-21T01:36:30;93905.41;;;5.53;nan
11077;BME280;5591;42.626;23.380;2023-11-21T01:38:57;93973.22;;;5.91;nan
11077;BME280;5591;42.626;23.380;2023-11-21T01:41:25;93976.97;;;5.81;nan
11077;BME280;5591;42.626;23.380;2023-11-21T01:43:53;93980.84;;;5.85;nan
11077;BME280;5591;42.626;23.380;2023-11-21T01:46:20;93987.84;;;5.76;nan
11077;BME280;5591;42.626;23.380;2023-11-21T01:48:48;93993.53;;;5.96;nan
11077;BME280;5591;42.626;23.380;2023-11-21T01:51:17;93988.28;;;6.04;nan
11077;BME280;5591;42.626;23.380;2023-11-21T01:53:45;93982.25;;;6.11;nan
11077;BME280;5591;42.626;23.380;2023-11-21T01:56:12;93961.88;;;6.15;nan
11077;BME280;5591;42.626;23.380;2023-11-21T01:58:39;93960.66;;;5.95;nan
11077;BME280;5591;42.626;23.380;2023-11-21T02:01:07;93963.44;;;5.77;nan
11077;BME280;5591;42.626;23.380;2023-11-21T02:03:35;93890.97;;;5.26;nan
11077;BME280;5591;42.626;23.380;2023-11-21T02:06:02;93964.75;;;5.57;nan
11077;BME280;5591;42.626;23.380;2023-11-21T02:08:30;93958.75;;;5.65;nan
11077;BME280;5591;42.626;23.380;2023-11-21T02:10:57;93967.53;;;5.80;nan
11077;BME280;5591;42.626;23.380;2023-11-21T02:13:24;93979.38;;;5.90;nan
11077;BME280;5591;42.626;23.380;2023-11-21T02:15:51;93975.97;;;5.74;nan
11077;BME280;5591;42.626;23.380;2023-11-21T02:18:19;93974.34;;;5.89;nan
11077;BME280;5591;42.626;23.380;2023-11-21T02:20:47;93969.94;;;5.97;nan
11077;BME280;5591;42.626;23.380;2023-11-21T02:23:15;93972.16;;;6.08;nan
11077;BME280;5591;42.626;23.380;2023-11-21T02:25:43;93968.94;;;5.98;nan
11077;BME280;5591;42.626;23.380;2023-11-21T02:28:09;93969.59;;;6.00;nan
11077;BME280;5591;42.626;23.380;2023-11-21T02:30:38;93957.59;;;5.83;nan
11077;BME280;5591;42.626;23.380;2023-11-21T02:33:04;93964.41;;;5.76;nan
11077;BME280;5591;42.626;23.380;2023-11-21T02:35:31;93965.56;;;5.90;nan
11077;BME280;5591;42.626;23.380;2023-11-21T02:37:58;93964.28;;;5.86;nan
11077;BME280;5591;42.626;23.380;2023-11-21T02:40:26;93957.91;;;5.88;nan
11077;BME280;5591;42.626;23.380;2023-11-21T02:42:53;93964.69;;;6.05;nan
11077;BME280;5591;42.626;23.380;2023-11-21T02:45:20;93962.44;;;6.02;nan
11077;BME280;5591;42.626;23.380;2023-11-21T02:47:47;93963.75;;;5.98;nan
11077;BME280;5591;42.626;23.380;2023-11-21T02:50:15;93967.34;;;5.89;nan
11077;BME280;5591;42.626;23.380;2023-11-21T02:52:44;93969.28;;;5.95;nan
11077;BME280;5591;42.626;23.380;2023-11-21T02:55:11;93963.94;;;5.81;nan
11077;BME280;5591;42.626;23.380;2023-11-21T02:57:39;93961.81;;;5.68;nan
11077;BME280;5591;42.626;23.380;2023-11-21T03:00:07;93969.78;;;5.83;nan
11077;BME280;5591;42.626;23.380;2023-11-21T03:02:34;93971.09;;;5.71;nan
11077;BME280;5591;42.626;23.380;2023-11-21T03:05:05;93964.91;;;5.64;nan
11077;BME280;5591;42.626;23.380;2023-11-21T03:07:32;93960.53;;;5.72;nan
11077;BME280;5591;42.626;23.380;2023-11-21T03:09:58;93954.50;;;5.72;nan
11077;BME280;5591;42.626;23.380;2023-11-21T03:12:26;93961.19;;;5.66;nan
11077;BME280;5591;42.626;23.380;2023-11-21T03:14:54;93946.53;;;5.65;nan
11077;BME280;5591;42.626;23.380;2023-11-21T03:17:21;93957.28;;;5.70;nan
11077;BME280;5591;42.626;23.380;2023-11-21T03:19:48;93955.81;;;5.52;nan
11077;BME280;5591;42.626;23.380;2023-11-21T03:22:14;93945.75;;;5.49;nan
11077;BME280;5591;42.626;23.380;2023-11-21T03:24:41;93956.13;;;5.73;nan
11077;BME280;5591;42.626;23.380;2023-11-21T03:27:08;93964.13;;;5.63;nan
11077;BME280;5591;42.626;23.380;2023-11-21T03:29:35;93963.00;;;5.50;nan
11077;BME280;5591;42.626;23.380;2023-11-21T03:32:03;93968.69;;;5.61;nan
11077;BME280;5591;42.626;23.380;2023-11-21T03:34:32;93977.13;;;5.71;nan
11077;BME280;5591;42.626;23.380;2023-11-21T03:36:59;93968.50;;;5.63;nan
11077;BME280;5591;42.626;23.380;2023-11-21T03:39:26;93976.78;;;5.66;nan
11077;BME280;5591;42.626;23.380;2023-11-21T03:41:52;93973.38;;;5.82;nan
11077;BME280;5591;42.626;23.380;2023-11-21T03:44:19;93973.06;;;5.69;nan
11077;BME280;5591;42.626;23.380;2023-11-21T03:46:47;93972.56;;;5.57;nan
11077;BME280;5591;42.626;23.380;2023-11-21T03:49:15;93965.88;;;5.71;nan
11077;BME280;5591;42.626;23.380;2023-11-21T03:51:43;93945.41;;;5.68;nan
11077;BME280;5591;42.626;23.380;2023-11-21T03:54:13;93955.50;;;5.79;nan
11077;BME280;5591;42.626;23.380;2023-11-21T03:56:40;93944.09;;;5.80;nan
11077;BME280;5591;42.626;23.380;2023-11-21T03:59:07;93947.34;;;5.82;nan
11077;BME280;5591;42.626;23.380;2023-11-21T04:01:34;93946.03;;;5.78;nan
11077;BME280;5591;42.626;23.380;2023-11-21T04:04:01;93956.47;;;5.70;nan
11077;BME280;5591;42.626;23.380;2023-11-21T04:06:29;93950.94;;;5.81;nan
11077;BME280;5591;42.626;23.380;2023-11-21T04:08:58;93944.75;;;5.66;nan
11077;BME280;5591;42.626;23.380;2023-11-21T04:11:25;93924.28;;;5.47;nan
11077;BME280;5591;42.626;23.380;2023-11-21T04:13:53;93933.56;;;5.49;nan
11077;BME280;5591;42.626;23.380;2023-11-21T04:16:20;93934.50;;;5.64;nan
11077;BME280;5591;42.626;23.380;2023-11-21T04:18:47;93929.16;;;5.66;nan
11077;BME280;5591;42.626;23.380;2023-11-21T04:21:14;93931.72;;;5.74;nan
11077;BME280;5591;42.626;23.380;2023-11-21T04:23:43;93940.34;;;5.58;nan
11077;BME280;5591;42.626;23.380;2023-11-21T04:26:09;93941.38;;;5.41;nan
11077;BME280;5591;42.626;23.380;2023-11-21T04:28:36;93935.84;;;5.36;nan
11077;BME280;5591;42.626;23.380;2023-11-21T04:31:03;93930.81;;;5.35;nan
11077;BME280;5591;42.626;23.380;2023-11-21T04:33:30;93934.84;;;5.53;nan
11077;BME280;5591;42.626;23.380;2023-11-21T04:35:57;93934.06;;;5.45;nan
11077;BME280;5591;42.626;23.380;2023-11-21T04:38:24;93841.63;;;4.94;nan
11077;BME280;5591;42.626;23.380;2023-11-21T04:40:52;93943.31;;;5.55;nan
11077;BME280;5591;42.626;23.380;2023-11-21T04:43:19;93936.19;;;5.49;nan
11077;BME280;5591;42.626;23.380;2023-11-21T04:45:46;93929.50;;;5.55;nan
11077;BME280;5591;42.626;23.380;2023-11-21T04:48:13;93919.03;;;5.63;nan
11077;BME280;5591;42.626;23.380;2023-11-21T04:50:39;93928.38;;;5.49;nan
11077;BME280;5591;42.626;23.380;2023-11-21T04:53:06;93932.88;;;5.63;nan
11077;BME280;5591;42.626;23.380;2023-11-21T04:55:33;93942.66;;;5.61;nan
11077;BME280;5591;42.626;23.380;2023-11-21T04:58:01;93936.13;;;5.73;nan
11077;BME280;5591;42.626;23.380;2023-11-21T05:00:29;93936.28;;;5.72;nan
11077;BME280;5591;42.626;23.380;2023-11-21T05:02:56;93938.06;;;5.79;nan
11077;BME280;5591;42.626;23.380;2023-11-21T05:05:23;93938.56;;;5.75;nan
11077;BME280;5591;42.626;23.380;2023-11-21T05:07:50;93930.91;;;5.73;nan
11077;BME280;5591;42.626;23.380;2023-11-21T05:10:18;93943.44;;;5.86;nan
11077;BME280;5591;42.626;23.380;2023-11-21T05:12:45;93950.56;;;5.92;nan
11077;BME280;5591;42.626;23.380;2023-11-21T05:15:14;93936.41;;;5.78;nan
11077;BME280;5591;42.626;23.380;2023-11-21T05:17:41;93919.66;;;5.97;nan
11077;BME280;5591;42.626;23.380;2023-11-21T05:20:09;93923.03;;;6.05;nan
11077;BME280;5591;42.626;23.380;2023-11-21T05:22:37;93932.63;;;6.05;nan
11077;BME280;5591;42.626;23.380;2023-11-21T05:25:04;93933.97;;;5.93;nan
11077;BME280;5591;42.626;23.380;2023-11-21T05:27:33;93926.88;;;6.17;nan
11077;BME280;5591;42.626;23.380;2023-11-21T05:30:00;93935.59;;;5.94;nan
11077;BME280;5591;42.626;23.380;2023-11-21T05:32:29;93834.94;;;5.08;nan
11077;BME280;5591;42.626;23.380;2023-11-21T05:34:55;93942.47;;;5.71;nan
11077;BME280;5591;42.626;23.380;2023-11-21T05:37:22;93938.25;;;5.86;nan
11077;BME280;5591;42.626;23.380;2023-11-21T05:39:49;93945.84;;;6.03;nan
11077;BME280;5591;42.626;23.380;2023-11-21T05:42:16;93984.34;;;6.16;nan
11077;BME280;5591;42.626;23.380;2023-11-21T05:44:43;93948.69;;;6.24;nan
11077;BME280;5591;42.626;23.380;2023-11-21T05:47:10;93949.50;;;6.17;nan
11077;BME280;5591;42.626;23.380;2023-11-21T05:49:40;93954.81;;;6.31;nan
11077;BME280;5591;42.626;23.380;2023-11-21T05:52:07;93944.38;;;6.39;nan
11077;BME280;5591;42.626;23.380;2023-11-21T05:54:35;93944.81;;;6.51;nan
11077;BME280;5591;42.626;23.380;2023-11-21T05:57:02;93943.50;;;6.47;nan
11077;BME280;5591;42.626;23.380;2023-11-21T05:59:29;93946.09;;;6.16;nan
11077;BME280;5591;42.626;23.380;2023-11-21T06:01:56;93945.97;;;6.48;nan
11077;BME280;5591;42.626;23.380;2023-11-21T06:04:24;93940.72;;;6.56;nan
11077;BME280;5591;42.626;23.380;2023-11-21T06:06:52;93951.78;;;6.58;nan
11077;BME280;5591;42.626;23.380;2023-11-21T06:09:19;93946.06;;;6.63;nan
11077;BME280;5591;42.626;23.380;2023-11-21T06:11:46;93952.06;;;6.63;nan
11077;BME280;5591;42.626;23.380;2023-11-21T06:14:13;93951.63;;;6.82;nan
11077;BME280;5591;42.626;23.380;2023-11-21T06:16:43;93963.72;;;6.75;nan
11077;BME280;5591;42.626;23.380;2023-11-21T06:19:10;93962.63;;;6.70;nan
11077;BME280;5591;42.626;23.380;2023-11-21T06:21:37;93964.63;;;6.90;nan
11077;BME280;5591;42.626;23.380;2023-11-21T06:24:06;93974.53;;;6.95;nan
11077;BME280;5591;42.626;23.380;2023-11-21T06:26:33;93971.22;;;7.01;nan
11077;BME280;5591;42.626;23.380;2023-11-21T06:29:00;93971.22;;;7.01;nan
11077;BME280;5591;42.626;23.380;2023-11-21T06:31:28;93975.44;;;7.02;nan
11077;BME280;5591;42.626;23.380;2023-11-21T06:33:55;93983.78;;;7.28;nan
11077;BME280;5591;42.626;23.380;2023-11-21T06:36:23;93986.06;;;7.45;nan
11077;BME280;5591;42.626;23.380;2023-11-21T06:38:50;93983.16;;;7.62;nan
11077;BME280;5591;42.626;23.380;2023-11-21T06:41:18;93900.47;;;7.04;nan
11077;BME280;5591;42.626;23.380;2023-11-21T06:43:44;93954.44;;;7.62;nan
11077;BME280;5591;42.626;23.380;2023-11-21T06:46:12;93984.31;;;7.97;nan
11077;BME280;5591;42.626;23.380;2023-11-21T06:48:40;93995.47;;;8.05;nan
11077;BME280;5591;42.626;23.380;2023-11-21T06:51:07;93991.50;;;7.95;nan
11077;BME280;5591;42.626;23.380;2023-11-21T06:53:34;93938.34;;;7.88;nan
11077;BME280;5591;42.626;23.380;2023-11-21T06:56:02;93997.53;;;8.32;nan
11077;BME280;5591;42.626;23.380;2023-11-21T06:58:30;93996.63;;;8.40;nan
11077;BME280;5591;42.626;23.380;2023-11-21T07:00:57;94000.47;;;8.58;nan
11077;BME280;5591;42.626;23.380;2023-11-21T07:03:24;94007.78;;;8.48;nan
11077;BME280;5591;42.626;23.380;2023-11-21T07:05:52;94001.88;;;8.03;nan
11077;BME280;5591;42.626;23.380;2023-11-21T07:08:19;93999.31;;;8.61;nan
11077;BME280;5591;42.626;23.380;2023-11-21T07:10:46;94001.53;;;8.78;nan
11077;BME280;5591;42.626;23.380;2023-11-21T07:13:13;94000.94;;;8.33;nan
11077;BME280;5591;42.626;23.380;2023-11-21T07:15:41;94001.84;;;8.69;nan
11077;BME280;5591;42.626;23.380;2023-11-21T07:18:08;93987.75;;;8.84;nan
11077;BME280;5591;42.626;23.380;2023-11-21T07:20:35;93921.41;;;8.56;nan
11077;BME280;5591;42.626;23.380;2023-11-21T07:23:02;93984.56;;;9.10;nan
11077;BME280;5591;42.626;23.380;2023-11-21T07:25:29;93990.84;;;9.30;nan
11077;BME280;5591;42.626;23.380;2023-11-21T07:27:57;94000.31;;;9.31;nan
11077;BME280;5591;42.626;23.380;2023-11-21T07:30:24;93995.16;;;9.37;nan
11077;BME280;5591;42.626;23.380;2023-11-21T07:32:52;93901.84;;;8.52;nan
11077;BME280;5591;42.626;23.380;2023-11-21T07:35:19;93998.69;;;9.30;nan
11077;BME280;5591;42.626;23.380;2023-11-21T07:37:45;93983.78;;;9.72;nan
11077;BME280;5591;42.626;23.380;2023-11-21T07:40:14;94000.09;;;9.95;nan
11077;BME280;5591;42.626;23.380;2023-11-21T07:42:42;93990.75;;;9.86;nan
11077;BME280;5591;42.626;23.380;2023-11-21T07:45:09;93985.84;;;9.77;nan
11077;BME280;5591;42.626;23.380;2023-11-21T07:47:36;94000.81;;;9.62;nan
11077;BME280;5591;42.626;23.380;2023-11-21T07:50:07;93992.63;;;9.08;nan
11077;BME280;5591;42.626;23.380;2023-11-21T07:52:34;93986.66;;;9.56;nan
11077;BME280;5591;42.626;23.380;2023-11-21T07:55:01;93986.84;;;10.24;nan
11077;BME280;5591;42.626;23.380;2023-11-21T07:57:27;93981.13;;;10.48;nan
11077;BME280;5591;42.626;23.380;2023-11-21T07:59:54;93990.31;;;10.65;nan
11077;BME280;5591;42.626;23.380;2023-11-21T08:02:21;93988.56;;;10.85;nan
11077;BME280;5591;42.626;23.380;2023-11-21T08:04:48;93965.63;;;11.00;nan
11077;BME280;5591;42.626;23.380;2023-11-21T08:07:17;93969.41;;;10.91;nan
11077;BME280;5591;42.626;23.380;2023-11-21T08:09:44;93975.75;;;11.09;nan
11077;BME280;5591;42.626;23.380;2023-11-21T08:12:12;93968.41;;;10.45;nan
11077;BME280;5591;42.626;23.380;2023-11-21T08:14:40;93969.59;;;10.89;nan
11077;BME280;5591;42.626;23.380;2023-11-21T08:17:06;93961.25;;;11.20;nan
11077;BME280;5591;42.626;23.380;2023-11-21T08:19:35;93954.38;;;11.19;nan
11077;BME280;5591;42.626;23.380;2023-11-21T08:22:02;93975.00;;;11.41;nan
11077;BME280;5591;42.626;23.380;2023-11-21T08:24:30;93966.06;;;11.16;nan
11077;BME280;5591;42.626;23.380;2023-11-21T08:26:57;93966.06;;;11.10;nan
11077;BME280;5591;42.626;23.380;2023-11-21T08:29:24;93979.72;;;10.18;nan
11077;BME280;5591;42.626;23.380;2023-11-21T08:31:52;93986.22;;;10.22;nan
11077;BME280;5591;42.626;23.380;2023-11-21T08:34:19;93977.69;;;10.47;nan
11077;BME280;5591;42.626;23.380;2023-11-21T08:36:45;93968.66;;;11.03;nan
11077;BME280;5591;42.626;23.380;2023-11-21T08:39:12;93967.31;;;11.33;nan
11077;BME280;5591;42.626;23.380;2023-11-21T08:41:43;93963.56;;;11.62;nan
11077;BME280;5591;42.626;23.380;2023-11-21T08:44:10;93964.72;;;11.46;nan
11077;BME280;5591;42.626;23.380;2023-11-21T08:46:36;93967.78;;;11.50;nan
11077;BME280;5591;42.626;23.380;2023-11-21T08:49:05;93962.56;;;11.82;nan
11077;BME280;5591;42.626;23.380;2023-11-21T08:51:31;93960.75;;;11.96;nan
11077;BME280;5591;42.626;23.380;2023-11-21T08:53:58;93858.00;;;11.26;nan
11077;BME280;5591;42.626;23.380;2023-11-21T08:56:27;93920.03;;;12.24;nan
11077;BME280;5591;42.626;23.380;2023-11-21T08:58:55;93962.63;;;12.78;nan
11077;BME280;5591;42.626;23.380;2023-11-21T09:01:22;93958.94;;;12.85;nan
11077;BME280;5591;42.626;23.380;2023-11-21T09:03:50;93950.69;;;12.69;nan
11077;BME280;5591;42.626;23.380;2023-11-21T09:06:17;93945.75;;;12.16;nan
11077;BME280;5591;42.626;23.380;2023-11-21T09:08:43;93934.94;;;12.56;nan
11077;BME280;5591;42.626;23.380;2023-11-21T09:11:10;93926.38;;;12.73;nan
11077;BME280;5591;42.626;23.380;2023-11-21T09:13:37;93920.22;;;12.99;nan
11077;BME280;5591;42.626;23.380;2023-11-21T09:16:06;93909.84;;;13.04;nan
11077;BME280;5591;42.626;23.380;2023-11-21T09:18:32;93902.81;;;12.28;nan
11077;BME280;5591;42.626;23.380;2023-11-21T09:20:59;93884.03;;;12.18;nan
11077;BME280;5591;42.626;23.380;2023-11-21T09:23:26;93900.75;;;12.49;nan
11077;BME280;5591;42.626;23.380;2023-11-21T09:25:53;93886.91;;;12.67;nan
11077;BME280;5591;42.626;23.380;2023-11-21T09:28:22;93872.47;;;13.20;nan
11077;BME280;5591;42.626;23.380;2023-11-21T09:30:49;93883.50;;;13.10;nan
11077;BME280;5591;42.626;23.380;2023-11-21T09:33:17;93872.81;;;13.30;nan
11077;BME280;5591;42.626;23.380;2023-11-21T09:35:44;93865.47;;;13.63;nan
11077;BME280;5591;42.626;23.380;2023-11-21T09:38:11;93852.59;;;13.73;nan
11077;BME280;5591;42.626;23.380;2023-11-21T09:40:38;93845.53;;;13.91;nan
11077;BME280;5591;42.626;23.380;2023-11-21T09:43:07;93849.19;;;13.48;nan
11077;BME280;5591;42.626;23.380;2023-11-21T09:45:44;93837.38;;;12.95;nan
11077;BME280;5591;42.626;23.380;2023-11-21T09:48:13;93847.97;;;13.44;nan
11077;BME280;5591;42.626;23.380;2023-11-21T09:50:41;93843.56;;;13.38;nan
11077;BME280;5591;42.626;23.380;2023-11-21T09:53:12;93828.44;;;13.51;nan
11077;BME280;5591;42.626;23.380;2023-11-21T09:55:42;93818.81;;;13.39;nan
11077;BME280;5591;42.626;23.380;2023-11-21T09:58:10;93811.50;;;13.65;nan
11077;BME280;5591;42.626;23.380;2023-11-21T10:00:40;93807.13;;;13.53;nan
11077;BME280;5591;42.626;23.380;2023-11-21T10:03:07;93803.66;;;14.19;nan
11077;BME280;5591;42.626;23.380;2023-11-21T10:05:34;93792.03;;;14.02;nan
11077;BME280;5591;42.626;23.380;2023-11-21T10:08:04;93795.88;;;14.60;nan
11077;BME280;5591;42.626;23.380;2023-11-21T10:10:35;93795.59;;;14.50;nan
11077;BME280;5591;42.626;23.380;2023-11-21T10:13:03;93793.50;;;14.99;nan
11077;BME280;5591;42.626;23.380;2023-11-21T10:15:33;93789.47;;;15.38;nan
11077;BME280;5591;42.626;23.380;2023-11-21T10:18:02;93782.84;;;15.81;nan
11077;BME280;5591;42.626;23.380;2023-11-21T10:20:30;93776.47;;;15.59;nan
11077;BME280;5591;42.626;23.380;2023-11-21T10:22:57;93775.00;;;15.40;nan
11077;BME280;5591;42.626;23.380;2023-11-21T10:25:25;93768.78;;;15.69;nan
11077;BME280;5591;42.626;23.380;2023-11-21T10:27:57;93762.31;;;15.31;nan
11077;BME280;5591;42.626;23.380;2023-11-21T10:30:28;93768.41;;;15.43;nan
11077;BME280;5591;42.626;23.380;2023-11-21T10:32:59;93702.16;;;15.15;nan
11077;BME280;5591;42.626;23.380;2023-11-21T10:35:38;93773.84;;;15.71;nan
11077;BME280;5591;42.626;23.380;2023-11-21T10:38:06;93773.28;;;16.03;nan
11077;BME280;5591;42.626;23.380;2023-11-21T10:40:39;93706.09;;;14.72;nan
11077;BME280;5591;42.626;23.380;2023-11-21T10:43:07;93767.88;;;14.23;nan
11077;BME280;5591;42.626;23.380;2023-11-21T10:45:36;93751.28;;;14.34;nan
11077;BME280;5591;42.626;23.380;2023-11-21T10:48:05;93787.34;;;13.86;nan
11077;BME280;5591;42.626;23.380;2023-11-21T10:50:33;93670.44;;;12.65;nan
11077;BME280;5591;42.626;23.380;2023-11-21T10:53:01;93753.19;;;13.31;nan
11077;BME280;5591;42.626;23.380;2023-11-21T10:55:29;93748.31;;;14.13;nan
11077;BME280;5591;42.626;23.380;2023-11-21T10:57:59;93749.22;;;14.95;nan
11077;BME280;5591;42.626;23.380;2023-11-21T11:00:28;93743.69;;;15.37;nan
11077;BME280;5591;42.626;23.380;2023-11-21T11:02:55;93736.84;;;14.66;nan
11077;BME280;5591;42.626;23.380;2023-11-21T11:05:25;93742.91;;;14.55;nan
11077;BME280;5591;42.626;23.380;2023-11-21T11:07:58;93731.13;;;14.69;nan
11077;BME280;5591;42.626;23.380;2023-11-21T11:10:27;93734.00;;;15.08;nan
11077;BME280;5591;42.626;23.380;2023-11-21T11:12:55;93729.94;;;15.47;nan
11077;BME280;5591;42.626;23.380;2023-11-21T11:15:24;93708.81;;;14.54;nan
11077;BME280;5591;42.626;23.380;2023-11-21T11:17:51;93723.31;;;15.15;nan
11077;BME280;5591;42.626;23.380;2023-11-21T11:20:23;93721.88;;;15.53;nan
11077;BME280;5591;42.626;23.380;2023-11-21T11:22:59;93703.59;;;15.63;nan
11077;BME280;5591;42.626;23.380;2023-11-21T11:25:41;93694.97;;;15.45;nan
11077;BME280;5591;42.626;23.380;2023-11-21T11:28:17;93653.78;;;15.49;nan
11077;BME280;5591;42.626;23.380;2023-11-21T11:30:57;93686.06;;;15.74;nan
11077;BME280;5591;42.626;23.380;2023-11-21T11:33:34;93688.47;;;15.18;nan
11077;BME280;5591;42.626;23.380;2023-11-21T11:36:06;93678.97;;;15.51;nan
11077;BME280;5591;42.626;23.380;2023-11-21T11:38:37;93674.13;;;15.71;nan
11077;BME280;5591;42.626;23.380;2023-11-21T11:41:06;93681.94;;;15.78;nan
11077;BME280;5591;42.626;23.380;2023-11-21T11:43:34;93670.41;;;15.84;nan
11077;BME280;5591;42.626;23.380;2023-11-21T11:46:11;93660.91;;;15.71;nan
11077;BME280;5591;42.626;23.380;2023-11-21T11:48:40;93671.59;;;15.76;nan
11077;BME280;5591;42.626;23.380;2023-11-21T11:51:11;93695.22;;;14.80;nan
11077;BME280;5591;42.626;23.380;2023-11-21T11:53:40;93702.34;;;14.20;nan
11077;BME280;5591;42.626;23.380;2023-11-21T11:56:23;93711.56;;;13.93;nan
11077;BME280;5591;42.626;23.380;2023-11-21T11:58:52;93689.69;;;13.75;nan
11077;BME280;5591;42.626;23.380;2023-11-21T12:01:21;93697.00;;;13.91;nan
11077;BME280;5591;42.626;23.380;2023-11-21T12:06:51;93687.91;;;13.08;nan
11077;BME280;5591;42.626;23.380;2023-11-21T12:09:19;93659.44;;;12.43;nan
11077;BME280;5591;42.626;23.380;2023-11-21T12:11:46;93698.63;;;12.27;nan
11077;BME280;5591;42.626;23.380;2023-11-21T12:14:14;93698.69;;;12.14;nan
11077;BME280;5591;42.626;23.380;2023-11-21T12:16:42;93698.69;;;12.14;nan
11077;BME280;5591;42.626;23.380;2023-11-21T12:19:10;93728.22;;;12.16;nan
11077;BME280;5591;42.626;23.380;2023-11-21T12:21:37;93695.50;;;12.06;nan
11077;BME280;5591;42.626;23.380;2023-11-21T12:24:05;93704.28;;;12.31;nan
11077;BME280;5591;42.626;23.380;2023-11-21T12:26:34;93701.13;;;12.16;nan
11077;BME280;5591;42.626;23.380;2023-11-21T12:29:01;93680.09;;;12.46;nan
11077;BME280;5591;42.626;23.380;2023-11-21T12:31:30;93686.88;;;11.92;nan
11077;BME280;5591;42.626;23.380;2023-11-21T12:33:58;93697.56;;;12.04;nan
11077;BME280;5591;42.626;23.380;2023-11-21T12:36:25;93685.34;;;11.72;nan
11077;BME280;5591;42.626;23.380;2023-11-21T12:38:55;93755.53;;;11.65;nan
11077;BME280;5591;42.626;23.380;2023-11-21T12:41:22;93722.91;;;11.79;nan
11077;BME280;5591;42.626;23.380;2023-11-21T12:43:49;93703.38;;;11.49;nan
11077;BME280;5591;42.626;23.380;2023-11-21T12:46:16;93698.44;;;11.85;nan
11077;BME280;5591;42.626;23.380;2023-11-21T12:48:44;93699.59;;;12.32;nan
11077;BME280;5591;42.626;23.380;2023-11-21T12:51:13;93688.09;;;12.58;nan
11077;BME280;5591;42.626;23.380;2023-11-21T12:53:42;93681.69;;;12.78;nan
11077;BME280;5591;42.626;23.380;2023-11-21T12:56:10;93666.66;;;11.86;nan
11077;BME280;5591;42.626;23.380;2023-11-21T12:58:37;93601.78;;;11.36;nan
11077;BME280;5591;42.626;23.380;2023-11-21T13:01:05;93671.66;;;12.62;nan
11077;BME280;5591;42.626;23.380;2023-11-21T13:03:37;93680.72;;;12.73;nan
11077;BME280;5591;42.626;23.380;2023-11-21T13:06:06;93659.44;;;12.99;nan
11077;BME280;5591;42.626;23.380;2023-11-21T13:08:35;93651.34;;;12.45;nan
11077;BME280;5591;42.626;23.380;2023-11-21T13:11:05;93657.72;;;13.11;nan
11077;BME280;5591;42.626;23.380;2023-11-21T13:13:32;93654.59;;;13.56;nan
11077;BME280;5591;42.626;23.380;2023-11-21T13:16:00;93623.84;;;13.32;nan
11077;BME280;5591;42.626;23.380;2023-11-21T13:18:30;93647.91;;;13.90;nan
11077;BME280;5591;42.626;23.380;2023-11-21T13:20:59;93651.84;;;14.17;nan
11077;BME280;5591;42.626;23.380;2023-11-21T13:23:26;93651.28;;;14.26;nan
11077;BME280;5591;42.626;23.380;2023-11-21T13:25:55;93650.19;;;14.34;nan
11077;BME280;5591;42.626;23.380;2023-11-21T13:28:23;93655.28;;;14.47;nan
11077;BME280;5591;42.626;23.380;2023-11-21T13:30:57;93638.25;;;14.13;nan
11077;BME280;5591;42.626;23.380;2023-11-21T13:33:28;93644.19;;;14.27;nan